createdAt,value
2018-12-20T00:00:43.354Z,8.34
2018-12-20T00:03:22.710Z,8.36
2018-12-20T00:06:08.126Z,8.33
2018-12-20T00:08:40.608Z,8.19
2018-12-20T00:11:11.419Z,8.19
2018-12-20T00:13:44.728Z,8.26
2018-12-20T00:16:23.930Z,8.24
2018-12-20T00:18:54.238Z,8.16
2018-12-20T00:21:34.840Z,8.38
2018-12-20T00:24:14.544Z,8.30
2018-12-20T00:26:48.052Z,8.35
2018-12-20T00:29:27.634Z,8.30
2018-12-20T00:32:06.636Z,8.49
2018-12-20T00:34:38.081Z,8.34
2018-12-20T00:37:09.208Z,8.29
2018-12-20T00:39:46.998Z,8.41
2018-12-20T00:42:25.952Z,8.40
2018-12-20T00:45:04.796Z,8.31
2018-12-20T00:47:39.832Z,8.32
2018-12-20T00:50:11.158Z,8.31
2018-12-20T00:52:43.237Z,8.30
2018-12-20T00:55:22.882Z,8.32
2018-12-20T00:57:56.315Z,8.52
2018-12-20T01:00:28.159Z,8.30
2018-12-20T01:03:06.730Z,8.32
2018-12-20T01:05:38.106Z,8.28
2018-12-20T01:08:07.969Z,8.34
2018-12-20T01:10:37.813Z,8.43
2018-12-20T01:13:16.677Z,8.54
2018-12-20T01:18:43.213Z,8.49
2018-12-20T01:21:22.275Z,8.35
2018-12-20T01:23:56.201Z,8.44
2018-12-20T01:26:27.395Z,8.41
2018-12-20T01:28:57.252Z,8.42
2018-12-20T01:31:47.289Z,8.77
2018-12-20T01:34:19.317Z,8.67
2018-12-20T01:36:51.272Z,8.57
2018-12-20T01:39:25.304Z,8.54
2018-12-20T01:42:04.000Z,8.58
2018-12-20T01:44:53.328Z,8.73
2018-12-20T01:47:19.769Z,8.64
2018-12-20T01:49:58.286Z,8.68
2018-12-20T01:52:36.300Z,8.65
2018-12-20T01:55:15.479Z,8.60
2018-12-20T01:57:47.512Z,8.62
2018-12-20T02:00:24.275Z,8.58
2018-12-20T02:03:02.351Z,8.82
2018-12-20T02:05:40.317Z,8.61
2018-12-20T02:08:12.754Z,8.53
2018-12-20T02:10:44.028Z,8.58
2018-12-20T02:13:22.953Z,8.58
2018-12-20T02:16:02.723Z,8.64
2018-12-20T02:18:35.426Z,8.50
2018-12-20T02:21:14.188Z,8.53
2018-12-20T02:23:50.249Z,8.50
2018-12-20T02:26:21.699Z,8.48
2018-12-20T02:28:51.550Z,8.50
2018-12-20T02:31:32.406Z,8.48
2018-12-20T02:34:04.342Z,8.61
2018-12-20T02:36:45.209Z,8.57
2018-12-20T02:39:23.154Z,8.61
2018-12-20T02:42:01.660Z,8.59
2018-12-20T02:44:41.651Z,8.66
2018-12-20T02:47:14.149Z,8.64
2018-12-20T02:49:53.722Z,8.64
2018-12-20T02:52:24.962Z,8.59
2018-12-20T02:55:03.724Z,8.59
2018-12-20T02:57:36.220Z,8.57
2018-12-20T03:00:14.693Z,8.58
2018-12-20T03:02:52.403Z,8.61
2018-12-20T03:05:31.326Z,8.59
2018-12-20T03:08:09.366Z,8.66
2018-12-20T03:10:47.328Z,8.55
2018-12-20T03:13:18.551Z,8.64
2018-12-20T03:15:52.926Z,8.52
2018-12-20T03:18:26.737Z,8.55
2018-12-20T03:21:08.852Z,8.58
2018-12-20T03:23:41.520Z,8.64
2018-12-20T03:26:14.425Z,8.62
2018-12-20T03:28:44.106Z,8.57
2018-12-20T03:31:14.318Z,8.60
2018-12-20T03:33:52.911Z,8.66
2018-12-20T03:36:24.514Z,8.60
2018-12-20T03:38:56.403Z,8.74
2018-12-20T03:41:29.638Z,8.66
2018-12-20T03:44:09.436Z,8.75
2018-12-20T03:46:47.191Z,8.69
2018-12-20T03:49:18.447Z,8.72
2018-12-20T03:51:59.945Z,8.68
2018-12-20T03:54:31.330Z,8.62
2018-12-20T03:57:03.338Z,8.72
2018-12-20T03:59:42.427Z,8.67
2018-12-20T04:02:22.326Z,8.68
2018-12-20T04:05:00.526Z,8.81
2018-12-20T04:07:32.775Z,8.74
2018-12-20T04:10:06.707Z,8.76
2018-12-20T04:12:45.409Z,8.68
2018-12-20T04:15:23.629Z,8.82
2018-12-20T04:17:53.370Z,8.91
2018-12-20T04:20:28.944Z,8.80
2018-12-20T04:23:07.822Z,8.79
2018-12-20T04:25:41.787Z,8.92
2018-12-20T04:28:14.306Z,8.87
2018-12-20T04:30:46.437Z,8.89
2018-12-20T04:33:26.187Z,8.86
2018-12-20T04:35:58.594Z,8.91
2018-12-20T04:38:30.984Z,8.88
2018-12-20T04:41:14.268Z,8.82
2018-12-20T04:43:47.627Z,8.79
2018-12-20T04:46:26.507Z,8.81
2018-12-20T04:49:05.525Z,8.78
2018-12-20T04:51:43.778Z,8.70
2018-12-20T04:54:22.662Z,8.74
2018-12-20T04:56:55.557Z,9.01
2018-12-20T04:59:29.764Z,8.84
2018-12-20T05:02:08.652Z,8.62
2018-12-20T05:04:46.884Z,8.84
2018-12-20T05:07:18.274Z,8.60
2018-12-20T05:09:57.384Z,8.41
2018-12-20T05:12:35.983Z,8.39
2018-12-20T05:15:14.206Z,8.44
2018-12-20T05:17:45.204Z,8.41
2018-12-20T05:20:23.124Z,8.47
2018-12-20T05:23:01.650Z,8.37
2018-12-20T05:25:32.936Z,8.38
2018-12-20T05:28:02.841Z,8.38
2018-12-20T05:30:34.137Z,8.46
2018-12-20T05:36:06.784Z,8.37
2018-12-20T05:38:45.313Z,8.35
2018-12-20T05:41:24.350Z,8.35
2018-12-20T05:44:06.127Z,8.35
2018-12-20T05:52:33.060Z,8.35
2018-12-20T05:58:00.804Z,8.22
2018-12-20T06:00:31.986Z,8.20
2018-12-20T06:03:16.271Z,8.22
2018-12-20T06:05:58.506Z,8.39
2018-12-20T06:08:30.643Z,8.44
2018-12-20T06:11:10.477Z,8.44
2018-12-20T06:13:42.024Z,8.30
2018-12-20T06:19:14.107Z,8.20
2018-12-20T06:21:44.120Z,8.33
2018-12-20T06:24:16.355Z,8.44
2018-12-20T06:26:56.368Z,8.52
2018-12-20T06:29:32.936Z,8.26
2018-12-20T06:32:12.081Z,8.50
2018-12-20T06:34:49.952Z,8.42
2018-12-20T06:37:23.103Z,8.18
2018-12-20T06:40:02.819Z,8.16
2018-12-20T06:42:42.536Z,8.26
2018-12-20T06:45:21.662Z,8.42
2018-12-20T06:47:56.758Z,8.22
2018-12-20T06:50:36.953Z,8.22
2018-12-20T06:53:16.106Z,8.21
2018-12-20T06:55:55.924Z,8.31
2018-12-20T07:01:23.849Z,8.51
2018-12-20T07:03:57.741Z,8.29
2018-12-20T07:06:31.801Z,8.37
2018-12-20T07:09:10.895Z,8.45
2018-12-20T07:11:52.885Z,8.57
2018-12-20T07:14:23.630Z,8.57
2018-12-20T07:17:02.523Z,8.63
2018-12-20T07:19:33.408Z,8.56
2018-12-20T07:22:12.197Z,8.37
2018-12-20T07:24:45.746Z,8.32
2018-12-20T07:27:17.074Z,8.32
2018-12-20T07:29:55.875Z,8.31
2018-12-20T07:32:34.790Z,8.30
2018-12-20T07:35:13.812Z,8.29
2018-12-20T07:37:45.324Z,8.30
2018-12-20T07:40:24.922Z,8.25
2018-12-20T07:43:04.162Z,8.47
2018-12-20T07:45:42.184Z,8.36
2018-12-20T07:48:13.545Z,8.48
2018-12-20T07:50:52.659Z,8.22
2018-12-20T07:53:23.691Z,8.51
2018-12-20T07:56:02.529Z,8.43
2018-12-20T07:58:33.878Z,8.47
2018-12-20T08:01:26.508Z,8.72
2018-12-20T08:04:05.082Z,8.69
2018-12-20T08:06:36.225Z,8.48
2018-12-20T08:09:14.466Z,8.49
2018-12-20T08:11:47.721Z,8.50
2018-12-20T08:14:28.368Z,8.46
2018-12-20T08:17:01.358Z,8.52
2018-12-20T08:19:41.036Z,8.63
2018-12-20T08:22:20.186Z,8.60
2018-12-20T08:24:54.172Z,8.66
2018-12-20T08:27:25.533Z,8.78
2018-12-20T08:30:10.854Z,8.67
2018-12-20T08:32:44.118Z,8.63
2018-12-20T08:35:22.938Z,8.54
2018-12-20T08:38:00.954Z,8.69
2018-12-20T08:40:39.670Z,8.67
2018-12-20T08:43:17.829Z,8.71
2018-12-20T08:45:55.752Z,8.78
2018-12-20T08:48:28.278Z,8.78
2018-12-20T08:51:06.774Z,8.76
2018-12-20T08:53:45.795Z,8.78
2018-12-20T08:56:23.806Z,8.69
2018-12-20T08:59:01.807Z,8.88
2018-12-20T09:01:35.715Z,8.74
2018-12-20T09:04:13.930Z,8.71
2018-12-20T09:06:52.075Z,8.89
2018-12-20T09:09:30.069Z,8.76
2018-12-20T09:15:02.222Z,8.66
2018-12-20T09:17:33.371Z,8.77
2018-12-20T09:20:11.322Z,8.75
2018-12-20T09:22:42.752Z,8.63
2018-12-20T09:25:20.672Z,8.81
2018-12-20T09:27:51.918Z,8.71
2018-12-20T09:30:30.670Z,8.83
2018-12-20T09:33:05.387Z,8.89
2018-12-20T09:35:45.420Z,8.93
2018-12-20T09:38:20.503Z,8.91
2018-12-20T09:41:01.091Z,9.01
2018-12-20T09:43:33.902Z,9.08
2018-12-20T09:46:06.094Z,9.00
2018-12-20T09:48:38.272Z,8.93
2018-12-20T09:51:16.904Z,8.84
2018-12-20T09:53:54.824Z,9.09
2018-12-20T09:56:29.750Z,9.04
2018-12-20T09:59:01.907Z,9.19
2018-12-20T10:01:40.508Z,9.32
2018-12-20T10:04:19.570Z,9.14
2018-12-20T10:06:57.535Z,9.18
2018-12-20T10:09:35.685Z,9.09
2018-12-20T10:12:13.773Z,9.04
2018-12-20T10:14:52.815Z,8.96
2018-12-20T10:17:24.349Z,9.07
2018-12-20T10:20:02.132Z,8.96
2018-12-20T10:22:41.280Z,9.01
2018-12-20T10:25:19.220Z,9.23
2018-12-20T10:27:51.601Z,9.07
2018-12-20T10:30:22.662Z,9.11
2018-12-20T10:33:00.455Z,9.17
2018-12-20T10:35:38.569Z,9.18
2018-12-20T10:38:09.751Z,9.20
2018-12-20T10:40:41.792Z,9.41
2018-12-20T10:43:22.255Z,9.18
2018-12-20T10:46:05.468Z,9.25
2018-12-20T10:48:37.757Z,9.19
2018-12-20T10:51:17.332Z,9.21
2018-12-20T10:53:57.691Z,9.17
2018-12-20T10:56:50.830Z,9.09
2018-12-20T10:59:25.837Z,9.15
2018-12-20T11:02:10.535Z,9.36
2018-12-20T11:04:54.492Z,9.30
2018-12-20T11:07:34.365Z,9.28
2018-12-20T11:10:19.467Z,9.44
2018-12-20T11:13:00.917Z,9.37
2018-12-20T11:15:52.394Z,9.41
2018-12-20T11:18:23.576Z,9.43
2018-12-20T11:21:03.510Z,9.33
2018-12-20T11:23:36.927Z,9.45
2018-12-20T11:26:22.540Z,9.46
2018-12-20T11:28:56.240Z,9.44
2018-12-20T11:31:45.049Z,9.80
2018-12-20T11:34:19.059Z,9.53
2018-12-20T11:36:57.985Z,9.45
2018-12-20T11:39:36.098Z,9.54
2018-12-20T11:42:14.202Z,9.71
2018-12-20T11:44:54.039Z,9.61
2018-12-20T11:47:27.306Z,9.63
2018-12-20T11:50:12.431Z,9.62
2018-12-20T11:52:59.346Z,9.54
2018-12-20T11:55:39.675Z,9.53
2018-12-20T11:58:19.723Z,9.49
2018-12-20T12:00:58.797Z,9.48
2018-12-20T12:03:34.807Z,9.69
2018-12-20T12:06:14.875Z,9.60
2018-12-20T12:08:52.862Z,9.61
2018-12-20T12:11:32.742Z,9.60
2018-12-20T12:14:11.550Z,9.53
2018-12-20T12:16:49.703Z,9.61
2018-12-20T12:19:30.372Z,9.83
2018-12-20T12:22:00.808Z,9.73
2018-12-20T12:24:37.543Z,9.63
2018-12-20T12:27:08.818Z,9.68
2018-12-20T12:32:44.274Z,9.80
2018-12-20T12:35:23.898Z,9.88
2018-12-20T12:38:03.860Z,9.72
2018-12-20T12:40:42.258Z,9.78
2018-12-20T12:43:21.382Z,9.76
2018-12-20T12:45:59.387Z,9.85
2018-12-20T12:48:31.629Z,9.75
2018-12-20T12:51:09.452Z,9.77
2018-12-20T12:53:48.696Z,10.08
2018-12-20T12:56:23.863Z,9.82
2018-12-20T12:58:59.070Z,9.87
2018-12-20T13:01:30.106Z,9.81
2018-12-20T13:04:08.956Z,9.81
2018-12-20T13:06:48.026Z,9.80
2018-12-20T13:09:19.694Z,9.80
2018-12-20T13:11:57.780Z,9.79
2018-12-20T13:14:35.867Z,9.76
2018-12-20T13:17:08.365Z,9.84
2018-12-20T13:19:39.375Z,9.85
2018-12-20T13:22:18.182Z,9.78
2018-12-20T13:24:56.285Z,9.80
2018-12-20T13:27:28.594Z,9.98
2018-12-20T13:30:09.336Z,9.84
2018-12-20T13:32:41.838Z,9.91
2018-12-20T13:35:12.751Z,9.88
2018-12-20T13:37:43.897Z,9.81
2018-12-20T13:40:17.918Z,9.67
2018-12-20T13:42:55.887Z,9.88
2018-12-20T13:45:34.914Z,10.03
2018-12-20T13:48:25.896Z,9.88
2018-12-20T13:51:10.411Z,10.09
2018-12-20T13:53:43.006Z,9.91
2018-12-20T13:56:14.162Z,10.04
2018-12-20T13:58:45.237Z,9.56
2018-12-20T14:01:18.255Z,9.50
2018-12-20T14:03:57.242Z,9.44
2018-12-20T14:06:36.208Z,9.42
2018-12-20T14:09:07.964Z,9.26
2018-12-20T14:11:52.659Z,9.44
2018-12-20T14:17:20.018Z,9.58
2018-12-20T14:19:53.015Z,9.53
2018-12-20T14:22:41.912Z,9.33
2018-12-20T14:25:17.053Z,9.40
2018-12-20T14:27:55.892Z,9.28
2018-12-20T14:30:35.034Z,9.30
2018-12-20T14:33:14.054Z,9.12
2018-12-20T14:35:52.976Z,9.04
2018-12-20T14:38:25.368Z,9.06
2018-12-20T14:41:04.250Z,8.92
2018-12-20T14:43:43.414Z,9.21
2018-12-20T14:46:22.478Z,8.96
2018-12-20T14:48:54.643Z,9.16
2018-12-20T14:51:33.650Z,8.94
2018-12-20T14:54:12.567Z,9.32
2018-12-20T14:56:47.422Z,8.94
2018-12-20T14:59:18.698Z,9.01
2018-12-20T15:01:54.625Z,8.81
2018-12-20T15:04:27.155Z,8.72
2018-12-20T15:06:57.958Z,8.91
2018-12-20T15:09:45.255Z,9.04
2018-12-20T15:15:21.439Z,8.82
2018-12-20T15:17:59.638Z,8.85
2018-12-20T15:20:40.722Z,8.90
2018-12-20T15:23:18.748Z,8.81
2018-12-20T15:25:57.923Z,9.10
2018-12-20T15:28:30.540Z,9.23
2018-12-20T15:31:08.408Z,8.95
2018-12-20T15:33:47.265Z,9.03
2018-12-20T15:36:29.887Z,8.83
2018-12-20T15:39:00.535Z,9.07
2018-12-20T15:41:37.254Z,8.90
2018-12-20T15:44:15.166Z,8.89
2018-12-20T15:46:49.134Z,8.78
2018-12-20T15:49:26.859Z,8.95
2018-12-20T15:52:05.808Z,8.73
2018-12-20T15:57:31.358Z,8.92
2018-12-20T16:00:05.338Z,8.91
2018-12-20T16:02:36.537Z,8.98
2018-12-20T16:05:14.309Z,8.91
2018-12-20T16:08:01.808Z,9.06
2018-12-20T16:10:32.709Z,8.95
2018-12-20T16:13:12.421Z,9.00
2018-12-20T16:15:50.406Z,9.03
2018-12-20T16:18:22.721Z,9.20
2018-12-20T16:23:54.250Z,9.16
2018-12-20T16:26:33.498Z,9.13
2018-12-20T16:29:04.647Z,9.20
2018-12-20T16:31:35.598Z,9.36
2018-12-20T16:34:15.502Z,9.25
2018-12-20T16:36:53.939Z,9.12
2018-12-20T16:39:34.395Z,9.10
2018-12-20T16:42:10.346Z,9.02
2018-12-20T16:44:49.361Z,8.98
2018-12-20T16:47:24.324Z,9.10
2018-12-20T16:49:56.708Z,9.03
2018-12-20T16:52:32.631Z,9.09
2018-12-20T16:55:11.668Z,9.03
2018-12-20T16:57:47.536Z,9.12
2018-12-20T17:00:26.446Z,9.04
2018-12-20T17:03:15.896Z,9.01
2018-12-20T17:05:47.154Z,9.08
2018-12-20T17:08:19.354Z,9.25
2018-12-20T17:10:50.491Z,9.15
2018-12-20T17:13:29.508Z,8.99
2018-12-20T17:16:09.574Z,9.00
2018-12-20T17:18:40.530Z,8.98
2018-12-20T17:21:11.483Z,9.01
2018-12-20T17:23:42.537Z,9.18
2018-12-20T17:26:21.210Z,9.18
2018-12-20T17:28:56.226Z,9.20
2018-12-20T17:31:36.995Z,9.39
2018-12-20T17:34:11.092Z,9.08
2018-12-20T17:36:58.424Z,9.29
2018-12-20T17:39:32.294Z,9.06
2018-12-20T17:42:14.968Z,9.11
2018-12-20T17:47:40.670Z,9.08
2018-12-20T17:53:13.214Z,9.03
2018-12-20T17:55:52.199Z,9.10
2018-12-20T17:58:25.563Z,9.13
2018-12-20T18:00:58.650Z,9.07
2018-12-20T18:03:38.259Z,8.84
2018-12-20T18:06:17.059Z,9.10
2018-12-20T18:08:49.595Z,8.95
2018-12-20T18:11:25.398Z,8.94
2018-12-20T18:14:07.010Z,8.87
2018-12-20T18:16:41.452Z,8.73
2018-12-20T18:19:20.454Z,8.71
2018-12-20T18:22:03.074Z,8.83
2018-12-20T18:24:33.822Z,8.94
2018-12-20T18:27:05.894Z,8.90
2018-12-20T18:29:44.976Z,8.84
2018-12-20T18:32:23.923Z,8.81
2018-12-20T18:35:02.821Z,8.87
2018-12-20T18:37:42.184Z,8.81
2018-12-20T18:40:21.204Z,8.81
2018-12-20T18:43:01.724Z,8.65
2018-12-20T18:48:32.152Z,8.84
2018-12-20T18:51:04.815Z,8.76
2018-12-20T18:56:31.482Z,8.95
2018-12-20T18:59:04.770Z,9.33
2018-12-20T19:01:36.838Z,9.06
2018-12-20T19:04:08.833Z,8.97
2018-12-20T19:06:51.510Z,8.87
2018-12-20T19:09:40.019Z,8.86
2018-12-20T19:12:17.748Z,8.84
2018-12-20T19:14:56.770Z,8.87
2018-12-20T19:17:43.838Z,8.98
2018-12-20T19:20:22.811Z,8.98
2018-12-20T19:23:01.548Z,8.85
2018-12-20T19:25:47.108Z,8.94
2018-12-20T19:28:20.115Z,8.81
2018-12-20T19:30:58.826Z,8.75
2018-12-20T19:33:38.152Z,8.86
2018-12-20T19:36:17.369Z,8.82
2018-12-20T19:38:49.721Z,8.89
2018-12-20T19:41:25.410Z,8.91
2018-12-20T19:44:04.356Z,8.81
2018-12-20T19:46:46.894Z,8.89
2018-12-20T19:49:25.353Z,8.85
2018-12-20T19:52:16.581Z,8.82
2018-12-20T19:54:51.510Z,8.75
2018-12-20T19:57:31.476Z,8.73
2018-12-20T20:00:01.111Z,8.76
2018-12-20T20:02:41.829Z,8.82
2018-12-20T20:05:20.778Z,8.76
2018-12-20T20:07:53.091Z,8.73
2018-12-20T20:10:40.386Z,8.76
2018-12-20T20:13:19.271Z,8.70
2018-12-20T20:15:47.475Z,8.77
2018-12-20T20:18:18.647Z,8.71
2018-12-20T20:20:58.386Z,8.79
2018-12-20T20:23:38.502Z,8.77
2018-12-20T20:26:29.782Z,8.78
2018-12-20T20:29:01.913Z,8.89
2018-12-20T20:34:27.148Z,8.85
2018-12-20T20:36:59.269Z,8.88
2018-12-20T20:42:33.505Z,8.87
2018-12-20T20:45:13.656Z,8.88
2018-12-20T20:47:49.934Z,8.94
2018-12-20T20:50:29.156Z,8.92
2018-12-20T20:53:00.762Z,8.92
2018-12-20T20:55:33.846Z,8.99
2018-12-20T20:58:06.063Z,8.92
2018-12-20T21:00:51.463Z,8.98
2018-12-20T21:03:30.866Z,8.95
2018-12-20T21:06:15.367Z,8.99
2018-12-20T21:09:08.812Z,8.90
2018-12-20T21:11:55.313Z,8.88
2018-12-20T21:14:36.535Z,8.98
2018-12-20T21:17:16.658Z,8.96
2018-12-20T21:19:54.856Z,9.19
2018-12-20T21:22:42.929Z,9.10
2018-12-20T21:25:20.800Z,8.84
2018-12-20T21:27:54.910Z,9.09
2018-12-20T21:30:46.730Z,8.79
2018-12-20T21:33:24.668Z,8.90
2018-12-20T21:35:58.764Z,8.75
2018-12-20T21:38:30.886Z,8.70
2018-12-20T21:41:08.757Z,8.63
2018-12-20T21:43:46.754Z,8.73
2018-12-20T21:46:25.751Z,8.76
2018-12-20T21:48:58.194Z,8.85
2018-12-20T21:51:31.998Z,8.76
2018-12-20T21:54:10.166Z,8.59
2018-12-20T21:56:49.409Z,8.67
2018-12-20T21:59:28.340Z,8.60
2018-12-20T22:02:15.247Z,8.55
2018-12-20T22:04:59.423Z,8.55
2018-12-20T22:07:33.838Z,8.60
2018-12-20T22:10:13.039Z,8.50
2018-12-20T22:12:49.094Z,8.66
2018-12-20T22:15:28.374Z,8.74
2018-12-20T22:18:01.130Z,8.47
2018-12-20T22:20:35.201Z,8.52
2018-12-20T22:23:14.150Z,8.63
2018-12-20T22:26:03.113Z,8.66
2018-12-20T22:28:36.434Z,8.50
2018-12-20T22:31:22.215Z,8.42
2018-12-20T22:33:58.554Z,8.51
2018-12-20T22:42:19.458Z,8.62
2018-12-20T22:44:59.201Z,8.57
2018-12-20T22:47:31.772Z,8.77
2018-12-20T22:50:06.571Z,8.65
2018-12-20T22:52:37.414Z,8.65
2018-12-20T22:55:17.153Z,8.78
2018-12-20T22:57:49.542Z,8.68
2018-12-20T23:00:20.591Z,8.70
2018-12-20T23:03:00.294Z,8.73
2018-12-20T23:05:39.455Z,8.72
2018-12-20T23:08:20.822Z,8.74
2018-12-20T23:10:51.553Z,8.80
2018-12-20T23:13:23.522Z,8.76
2018-12-20T23:15:55.814Z,8.83
2018-12-20T23:18:27.856Z,8.80
2018-12-20T23:21:05.379Z,8.77
2018-12-20T23:23:44.708Z,8.82
2018-12-20T23:26:16.895Z,8.86
2018-12-20T23:28:53.495Z,8.81
2018-12-20T23:31:44.513Z,8.81
2018-12-20T23:34:18.431Z,8.85
2018-12-20T23:36:50.933Z,8.87
2018-12-20T23:39:21.858Z,8.95
2018-12-20T23:42:00.875Z,9.00
2018-12-20T23:44:34.406Z,8.97
2018-12-20T23:47:06.478Z,8.90
2018-12-20T23:49:53.620Z,8.96
2018-12-20T23:52:31.462Z,8.93
2018-12-20T23:55:09.366Z,8.91
